Cap-de-la-Madeleine, Canada
Current Conditions -  °F | °C
As of 12:00 PM on Thursday 18 Dec 2014 (Local Time) from CYRQ Reporting Station
Overcast Overcast  
Wind Chill: 23°   Ceiling: 3100
Heat Index: 30°   Visibility: 9mi
Dew Point: 27°   Wind: 8mph
Humidity: 86%   Direction: 340°NNW
Pressure: 29.81"   Gusts: NA
Location:  46.38°N, 72.55°W
Report Text: CYRQ 181700Z AUTO 34007KT 9SM FEW020 BKN031 OVC055 M01/M03 A2981 RMK SLP097
Loading
Personal Weather Stations






























Interactive Weather Map New forecast layout! Learn more

10-Day Weather Forecast

Advertisements
Track Severe Weather on mobile